sensor_id;sensor_type;location;lat;lon;timestamp;temperature;humidity
23591;DHT22;11973;52.098;7.582;2023-06-24T05:15:32;17.60;97.10
23591;DHT22;11973;52.098;7.582;2023-06-24T05:17:58;17.60;97.10
23591;DHT22;11973;52.098;7.582;2023-06-24T05:20:24;17.70;97.20
23591;DHT22;11973;52.098;7.582;2023-06-24T05:22:49;17.70;97.20
23591;DHT22;11973;52.098;7.582;2023-06-24T05:25:15;17.70;97.30
23591;DHT22;11973;52.098;7.582;2023-06-24T05:27:41;17.80;97.40
23591;DHT22;11973;52.098;7.582;2023-06-24T05:30:07;17.80;97.40
23591;DHT22;11973;52.098;7.582;2023-06-24T05:32:33;17.70;97.50
23591;DHT22;11973;52.098;7.582;2023-06-24T05:34:59;18.00;97.70
23591;DHT22;11973;52.098;7.582;2023-06-24T05:37:24;18.10;97.80
23591;DHT22;11973;52.098;7.582;2023-06-24T05:39:50;18.30;97.90
23591;DHT22;11973;52.098;7.582;2023-06-24T05:42:16;18.40;98.00
23591;DHT22;11973;52.098;7.582;2023-06-24T05:44:42;18.60;98.10
23591;DHT22;11973;52.098;7.582;2023-06-24T05:47:08;18.70;98.00
23591;DHT22;11973;52.098;7.582;2023-06-24T05:49:33;18.80;98.00
23591;DHT22;11973;52.098;7.582;2023-06-24T05:51:59;18.90;97.90
23591;DHT22;11973;52.098;7.582;2023-06-24T05:54:25;18.90;97.80
23591;DHT22;11973;52.098;7.582;2023-06-24T05:56:51;19.00;97.80
23591;DHT22;11973;52.098;7.582;2023-06-24T05:59:16;19.10;97.80
23591;DHT22;11973;52.098;7.582;2023-06-24T06:01:42;19.10;97.80
23591;DHT22;11973;52.098;7.582;2023-06-24T06:04:08;19.20;97.80
23591;DHT22;11973;52.098;7.582;2023-06-24T06:06:33;19.20;97.70
23591;DHT22;11973;52.098;7.582;2023-06-24T06:08:59;19.20;97.70
23591;DHT22;11973;52.098;7.582;2023-06-24T06:11:25;19.20;97.70
23591;DHT22;11973;52.098;7.582;2023-06-24T06:13:51;19.20;97.70
23591;DHT22;11973;52.098;7.582;2023-06-24T06:16:18;19.30;97.70
23591;DHT22;11973;52.098;7.582;2023-06-24T06:18:44;19.30;97.70
23591;DHT22;11973;52.098;7.582;2023-06-24T06:21:09;19.30;97.70
23591;DHT22;11973;52.098;7.582;2023-06-24T06:23:38;19.30;97.70
23591;DHT22;11973;52.098;7.582;2023-06-24T06:26:06;19.40;97.80
23591;DHT22;11973;52.098;7.582;2023-06-24T06:28:31;19.40;97.80
23591;DHT22;11973;52.098;7.582;2023-06-24T06:30:57;19.50;97.80
23591;DHT22;11973;52.098;7.582;2023-06-24T06:33:23;19.50;97.90
23591;DHT22;11973;52.098;7.582;2023-06-24T06:35:49;19.50;97.90
23591;DHT22;11973;52.098;7.582;2023-06-24T06:38:17;19.60;97.90
23591;DHT22;11973;52.098;7.582;2023-06-24T06:40:43;19.60;97.90
23591;DHT22;11973;52.098;7.582;2023-06-24T06:43:09;19.70;97.90
23591;DHT22;11973;52.098;7.582;2023-06-24T06:45:34;19.70;97.90
23591;DHT22;11973;52.098;7.582;2023-06-24T06:48:01;19.70;97.80
23591;DHT22;11973;52.098;7.582;2023-06-24T06:50:30;19.80;97.90
23591;DHT22;11973;52.098;7.582;2023-06-24T06:52:56;19.80;97.90
23591;DHT22;11973;52.098;7.582;2023-06-24T06:55:21;19.90;97.90
23591;DHT22;11973;52.098;7.582;2023-06-24T06:57:49;19.90;98.00
23591;DHT22;11973;52.098;7.582;2023-06-24T07:00:16;20.00;98.00
23591;DHT22;11973;52.098;7.582;2023-06-24T07:02:42;20.00;98.00
23591;DHT22;11973;52.098;7.582;2023-06-24T07:05:07;20.10;98.10
23591;DHT22;11973;52.098;7.582;2023-06-24T07:07:39;20.10;98.10
23591;DHT22;11973;52.098;7.582;2023-06-24T07:10:05;20.20;98.10
23591;DHT22;11973;52.098;7.582;2023-06-24T07:12:31;20.30;98.10
23591;DHT22;11973;52.098;7.582;2023-06-24T07:14:57;20.30;98.10
23591;DHT22;11973;52.098;7.582;2023-06-24T07:17:23;20.30;98.10
23591;DHT22;11973;52.098;7.582;2023-06-24T07:19:49;20.40;98.20
23591;DHT22;11973;52.098;7.582;2023-06-24T07:22:15;20.50;98.10
23591;DHT22;11973;52.098;7.582;2023-06-24T07:24:41;20.50;98.10
23591;DHT22;11973;52.098;7.582;2023-06-24T07:27:07;20.60;98.10
23591;DHT22;11973;52.098;7.582;2023-06-24T07:29:33;20.70;98.20
23591;DHT22;11973;52.098;7.582;2023-06-24T07:31:59;20.70;98.50
23591;DHT22;11973;52.098;7.582;2023-06-24T07:34:25;20.80;98.20
23591;DHT22;11973;52.098;7.582;2023-06-24T07:36:50;20.90;98.20
23591;DHT22;11973;52.098;7.582;2023-06-24T07:39:17;20.90;98.10
23591;DHT22;11973;52.098;7.582;2023-06-24T07:41:43;21.00;98.10
23591;DHT22;11973;52.098;7.582;2023-06-24T07:44:09;21.10;98.10
23591;DHT22;11973;52.098;7.582;2023-06-24T07:46:35;21.10;98.10
23591;DHT22;11973;52.098;7.582;2023-06-24T07:49:01;21.20;98.10
23591;DHT22;11973;52.098;7.582;2023-06-24T07:51:27;21.30;98.10
23591;DHT22;11973;52.098;7.582;2023-06-24T07:53:53;21.30;98.00
23591;DHT22;11973;52.098;7.582;2023-06-24T07:56:18;21.40;98.00
23591;DHT22;11973;52.098;7.582;2023-06-24T07:58:44;21.50;98.00
23591;DHT22;11973;52.098;7.582;2023-06-24T08:01:10;21.60;98.00
23591;DHT22;11973;52.098;7.582;2023-06-24T08:03:35;21.60;97.90
23591;DHT22;11973;52.098;7.582;2023-06-24T08:06:04;21.70;97.80
23591;DHT22;11973;52.098;7.582;2023-06-24T08:08:30;21.80;97.80
23591;DHT22;11973;52.098;7.582;2023-06-24T08:10:56;21.80;97.70
23591;DHT22;11973;52.098;7.582;2023-06-24T08:13:21;22.00;97.70
23591;DHT22;11973;52.098;7.582;2023-06-24T08:15:47;22.00;97.60
23591;DHT22;11973;52.098;7.582;2023-06-24T08:18:13;22.10;97.60
23591;DHT22;11973;52.098;7.582;2023-06-24T08:20:39;22.20;97.50
23591;DHT22;11973;52.098;7.582;2023-06-24T08:23:05;22.20;97.30
23591;DHT22;11973;52.098;7.582;2023-06-24T08:25:30;22.30;97.10
23591;DHT22;11973;52.098;7.582;2023-06-24T08:27:56;22.30;97.00
23591;DHT22;11973;52.098;7.582;2023-06-24T08:30:22;22.40;97.00
23591;DHT22;11973;52.098;7.582;2023-06-24T08:32:48;22.40;96.90
23591;DHT22;11973;52.098;7.582;2023-06-24T08:35:13;22.50;96.90
23591;DHT22;11973;52.098;7.582;2023-06-24T08:37:40;22.60;96.80
23591;DHT22;11973;52.098;7.582;2023-06-24T08:40:06;22.60;96.70
23591;DHT22;11973;52.098;7.582;2023-06-24T08:42:32;22.70;96.70
23591;DHT22;11973;52.098;7.582;2023-06-24T08:44:58;22.70;96.60
23591;DHT22;11973;52.098;7.582;2023-06-24T08:47:24;22.90;96.60
23591;DHT22;11973;52.098;7.582;2023-06-24T08:49:58;22.90;96.40
23591;DHT22;11973;52.098;7.582;2023-06-24T08:52:31;23.00;96.20
23591;DHT22;11973;52.098;7.582;2023-06-24T08:54:59;23.00;96.10
23591;DHT22;11973;52.098;7.582;2023-06-24T08:57:25;23.10;96.10
23591;DHT22;11973;52.098;7.582;2023-06-24T08:59:52;23.20;95.90
23591;DHT22;11973;52.098;7.582;2023-06-24T09:02:19;23.30;95.80
23591;DHT22;11973;52.098;7.582;2023-06-24T09:04:45;23.40;95.70
23591;DHT22;11973;52.098;7.582;2023-06-24T09:07:10;23.50;95.60
23591;DHT22;11973;52.098;7.582;2023-06-24T09:09:44;23.50;95.40
23591;DHT22;11973;52.098;7.582;2023-06-24T09:12:14;23.60;95.20
23591;DHT22;11973;52.098;7.582;2023-06-24T09:14:40;23.70;95.20
23591;DHT22;11973;52.098;7.582;2023-06-24T09:17:06;23.80;95.40
23591;DHT22;11973;52.098;7.582;2023-06-24T09:19:35;23.90;95.40
23591;DHT22;11973;52.098;7.582;2023-06-24T09:22:06;24.10;95.40
23591;DHT22;11973;52.098;7.582;2023-06-24T09:24:36;24.20;95.30
23591;DHT22;11973;52.098;7.582;2023-06-24T09:27:03;24.30;95.40
23591;DHT22;11973;52.098;7.582;2023-06-24T09:29:32;24.40;95.00
23591;DHT22;11973;52.098;7.582;2023-06-24T09:31:58;24.50;94.70
23591;DHT22;11973;52.098;7.582;2023-06-24T09:34:28;24.60;94.60
23591;DHT22;11973;52.098;7.582;2023-06-24T09:36:57;24.70;94.40
23591;DHT22;11973;52.098;7.582;2023-06-24T09:39:25;24.80;94.00
23591;DHT22;11973;52.098;7.582;2023-06-24T09:41:59;24.90;93.90
23591;DHT22;11973;52.098;7.582;2023-06-24T09:44:26;25.00;93.90
23591;DHT22;11973;52.098;7.582;2023-06-24T09:46:53;25.10;93.80
23591;DHT22;11973;52.098;7.582;2023-06-24T09:49:19;25.10;93.60
23591;DHT22;11973;52.098;7.582;2023-06-24T09:51:46;25.20;93.30
23591;DHT22;11973;52.098;7.582;2023-06-24T09:54:14;25.30;92.90
23591;DHT22;11973;52.098;7.582;2023-06-24T09:56:43;25.40;92.90
23591;DHT22;11973;52.098;7.582;2023-06-24T09:59:11;25.50;92.80
23591;DHT22;11973;52.098;7.582;2023-06-24T10:01:39;25.60;92.80
23591;DHT22;11973;52.098;7.582;2023-06-24T10:04:06;25.70;92.60
23591;DHT22;11973;52.098;7.582;2023-06-24T10:06:33;25.70;92.50
23591;DHT22;11973;52.098;7.582;2023-06-24T10:09:01;25.80;92.40
23591;DHT22;11973;52.098;7.582;2023-06-24T10:11:27;25.80;92.00
23591;DHT22;11973;52.098;7.582;2023-06-24T10:13:53;25.70;91.70
23591;DHT22;11973;52.098;7.582;2023-06-24T10:16:20;25.70;91.50
23591;DHT22;11973;52.098;7.582;2023-06-24T10:18:46;25.70;91.50
23591;DHT22;11973;52.098;7.582;2023-06-24T10:21:12;25.80;91.50
23591;DHT22;11973;52.098;7.582;2023-06-24T10:23:58;25.90;91.40
23591;DHT22;11973;52.098;7.582;2023-06-24T10:26:33;26.00;91.20
23591;DHT22;11973;52.098;7.582;2023-06-24T10:36:53;26.30;90.60
23591;DHT22;11973;52.098;7.582;2023-06-24T10:42:28;26.30;90.10
23591;DHT22;11973;52.098;7.582;2023-06-24T10:44:56;26.30;90.20
23591;DHT22;11973;52.098;7.582;2023-06-24T10:47:26;26.30;90.20
23591;DHT22;11973;52.098;7.582;2023-06-24T10:49:52;26.40;90.10
23591;DHT22;11973;52.098;7.582;2023-06-24T10:52:22;26.40;90.00
23591;DHT22;11973;52.098;7.582;2023-06-24T10:54:50;26.30;89.30
23591;DHT22;11973;52.098;7.582;2023-06-24T10:57:21;26.30;89.20
23591;DHT22;11973;52.098;7.582;2023-06-24T10:59:49;26.30;89.00
23591;DHT22;11973;52.098;7.582;2023-06-24T11:02:16;26.30;89.30
23591;DHT22;11973;52.098;7.582;2023-06-24T11:05:03;26.50;89.30
23591;DHT22;11973;52.098;7.582;2023-06-24T11:07:31;26.60;88.30
23591;DHT22;11973;52.098;7.582;2023-06-24T11:10:07;26.70;88.60
23591;DHT22;11973;52.098;7.582;2023-06-24T11:12:35;26.70;88.20
23591;DHT22;11973;52.098;7.582;2023-06-24T11:15:06;26.70;88.10
23591;DHT22;11973;52.098;7.582;2023-06-24T11:17:36;26.80;87.90
23591;DHT22;11973;52.098;7.582;2023-06-24T11:20:06;26.70;87.40
23591;DHT22;11973;52.098;7.582;2023-06-24T11:22:32;26.70;87.30
23591;DHT22;11973;52.098;7.582;2023-06-24T11:24:58;26.60;87.00
23591;DHT22;11973;52.098;7.582;2023-06-24T11:27:27;26.50;87.50
23591;DHT22;11973;52.098;7.582;2023-06-24T11:29:54;26.40;86.60
23591;DHT22;11973;52.098;7.582;2023-06-24T11:32:21;26.40;86.50
23591;DHT22;11973;52.098;7.582;2023-06-24T11:34:47;26.40;87.10
23591;DHT22;11973;52.098;7.582;2023-06-24T11:37:15;26.40;86.00
23591;DHT22;11973;52.098;7.582;2023-06-24T11:39:41;26.50;85.60
23591;DHT22;11973;52.098;7.582;2023-06-24T11:42:10;26.60;85.10
23591;DHT22;11973;52.098;7.582;2023-06-24T11:44:41;26.60;84.50
23591;DHT22;11973;52.098;7.582;2023-06-24T11:47:10;26.60;83.80
23591;DHT22;11973;52.098;7.582;2023-06-24T11:49:52;26.70;83.80
23591;DHT22;11973;52.098;7.582;2023-06-24T11:52:19;26.70;82.60
23591;DHT22;11973;52.098;7.582;2023-06-24T11:54:45;26.50;82.90
23591;DHT22;11973;52.098;7.582;2023-06-24T11:57:11;26.80;82.90
23591;DHT22;11973;52.098;7.582;2023-06-24T11:59:38;26.80;82.50
23591;DHT22;11973;52.098;7.582;2023-06-24T12:02:04;26.90;82.40
23591;DHT22;11973;52.098;7.582;2023-06-24T12:04:30;26.90;82.10
23591;DHT22;11973;52.098;7.582;2023-06-24T12:06:57;27.00;82.10
23591;DHT22;11973;52.098;7.582;2023-06-24T12:09:24;27.00;81.60
23591;DHT22;11973;52.098;7.582;2023-06-24T12:11:50;27.10;81.00
23591;DHT22;11973;52.098;7.582;2023-06-24T12:14:16;27.10;80.70
23591;DHT22;11973;52.098;7.582;2023-06-24T12:16:42;27.20;80.30
23591;DHT22;11973;52.098;7.582;2023-06-24T12:19:08;27.20;80.00
23591;DHT22;11973;52.098;7.582;2023-06-24T12:21:34;27.20;79.30
23591;DHT22;11973;52.098;7.582;2023-06-24T12:24:01;27.30;79.00
23591;DHT22;11973;52.098;7.582;2023-06-24T12:26:27;27.30;78.80
23591;DHT22;11973;52.098;7.582;2023-06-24T12:28:54;27.40;78.50
23591;DHT22;11973;52.098;7.582;2023-06-24T12:31:21;27.40;78.00
23591;DHT22;11973;52.098;7.582;2023-06-24T12:33:47;27.50;77.90
23591;DHT22;11973;52.098;7.582;2023-06-24T12:36:15;27.60;77.40
23591;DHT22;11973;52.098;7.582;2023-06-24T12:38:43;27.70;77.00
23591;DHT22;11973;52.098;7.582;2023-06-24T12:41:09;27.80;76.90
23591;DHT22;11973;52.098;7.582;2023-06-24T12:43:38;27.80;76.60
23591;DHT22;11973;52.098;7.582;2023-06-24T12:46:06;27.90;76.50
23591;DHT22;11973;52.098;7.582;2023-06-24T12:48:32;28.00;76.10
23591;DHT22;11973;52.098;7.582;2023-06-24T12:50:58;28.00;75.50
23591;DHT22;11973;52.098;7.582;2023-06-24T12:53:24;28.10;75.20
23591;DHT22;11973;52.098;7.582;2023-06-24T12:55:50;28.10;74.80
23591;DHT22;11973;52.098;7.582;2023-06-24T12:58:22;28.20;74.70
23591;DHT22;11973;52.098;7.582;2023-06-24T13:00:48;28.20;74.30
23591;DHT22;11973;52.098;7.582;2023-06-24T13:03:14;28.30;74.00
23591;DHT22;11973;52.098;7.582;2023-06-24T13:05:40;28.30;73.70
23591;DHT22;11973;52.098;7.582;2023-06-24T13:08:06;28.40;73.20
23591;DHT22;11973;52.098;7.582;2023-06-24T13:10:31;28.40;72.90
23591;DHT22;11973;52.098;7.582;2023-06-24T13:12:57;28.40;72.40
23591;DHT22;11973;52.098;7.582;2023-06-24T13:15:23;28.50;72.40
23591;DHT22;11973;52.098;7.582;2023-06-24T13:17:50;28.50;71.90
23591;DHT22;11973;52.098;7.582;2023-06-24T13:20:16;28.50;71.50
23591;DHT22;11973;52.098;7.582;2023-06-24T13:22:42;28.60;70.90
23591;DHT22;11973;52.098;7.582;2023-06-24T13:25:08;28.60;70.50
23591;DHT22;11973;52.098;7.582;2023-06-24T13:27:34;28.60;69.90
23591;DHT22;11973;52.098;7.582;2023-06-24T13:29:59;28.70;69.90
23591;DHT22;11973;52.098;7.582;2023-06-24T13:32:25;28.70;69.60
23591;DHT22;11973;52.098;7.582;2023-06-24T13:34:51;28.80;69.70
23591;DHT22;11973;52.098;7.582;2023-06-24T13:37:16;28.90;69.70
23591;DHT22;11973;52.098;7.582;2023-06-24T13:39:42;29.00;69.50
23591;DHT22;11973;52.098;7.582;2023-06-24T13:42:08;29.10;69.20
23591;DHT22;11973;52.098;7.582;2023-06-24T13:44:34;29.20;68.80
23591;DHT22;11973;52.098;7.582;2023-06-24T13:46:59;29.30;68.30
23591;DHT22;11973;52.098;7.582;2023-06-24T13:49:26;29.30;68.00
23591;DHT22;11973;52.098;7.582;2023-06-24T13:51:51;29.40;67.90
23591;DHT22;11973;52.098;7.582;2023-06-24T13:54:17;29.50;67.60
23591;DHT22;11973;52.098;7.582;2023-06-24T13:56:44;29.70;67.70
23591;DHT22;11973;52.098;7.582;2023-06-24T13:59:09;29.90;67.70
23591;DHT22;11973;52.098;7.582;2023-06-24T14:01:36;30.20;68.00
23591;DHT22;11973;52.098;7.582;2023-06-24T14:04:01;30.70;68.30
23591;DHT22;11973;52.098;7.582;2023-06-24T14:06:27;31.20;68.50
23591;DHT22;11973;52.098;7.582;2023-06-24T14:08:53;31.70;68.60
23591;DHT22;11973;52.098;7.582;2023-06-24T14:11:19;32.30;68.60
23591;DHT22;11973;52.098;7.582;2023-06-24T14:13:45;32.90;68.40
23591;DHT22;11973;52.098;7.582;2023-06-24T14:16:11;33.50;67.70
23591;DHT22;11973;52.098;7.582;2023-06-24T14:18:37;34.00;66.20
23591;DHT22;11973;52.098;7.582;2023-06-24T14:21:04;34.40;65.10
23591;DHT22;11973;52.098;7.582;2023-06-24T14:23:31;34.80;64.50
23591;DHT22;11973;52.098;7.582;2023-06-24T14:25:58;35.30;63.60
23591;DHT22;11973;52.098;7.582;2023-06-24T14:28:24;35.90;62.70
23591;DHT22;11973;52.098;7.582;2023-06-24T14:30:50;36.40;61.40
23591;DHT22;11973;52.098;7.582;2023-06-24T14:33:16;36.80;59.40
23591;DHT22;11973;52.098;7.582;2023-06-24T14:35:42;37.10;58.50
23591;DHT22;11973;52.098;7.582;2023-06-24T14:38:08;37.30;57.80
23591;DHT22;11973;52.098;7.582;2023-06-24T14:40:34;37.40;57.10
23591;DHT22;11973;52.098;7.582;2023-06-24T14:43:00;37.80;56.30
23591;DHT22;11973;52.098;7.582;2023-06-24T14:45:26;37.90;55.50
23591;DHT22;11973;52.098;7.582;2023-06-24T14:47:52;38.20;54.70
23591;DHT22;11973;52.098;7.582;2023-06-24T14:50:19;38.50;54.40
23591;DHT22;11973;52.098;7.582;2023-06-24T14:52:45;38.70;53.40
23591;DHT22;11973;52.098;7.582;2023-06-24T14:55:11;39.00;52.70
23591;DHT22;11973;52.098;7.582;2023-06-24T14:57:37;39.20;52.00
23591;DHT22;11973;52.098;7.582;2023-06-24T15:00:06;39.40;51.40
23591;DHT22;11973;52.098;7.582;2023-06-24T15:02:32;39.60;50.80
23591;DHT22;11973;52.098;7.582;2023-06-24T15:04:58;39.90;50.30
23591;DHT22;11973;52.098;7.582;2023-06-24T15:07:24;40.10;49.50
23591;DHT22;11973;52.098;7.582;2023-06-24T15:09:50;40.30;48.80
23591;DHT22;11973;52.098;7.582;2023-06-24T15:12:16;40.50;48.50
23591;DHT22;11973;52.098;7.582;2023-06-24T15:14:41;40.90;48.00
23591;DHT22;11973;52.098;7.582;2023-06-24T15:17:10;41.20;47.30
23591;DHT22;11973;52.098;7.582;2023-06-24T15:19:36;41.50;46.70
23591;DHT22;11973;52.098;7.582;2023-06-24T15:22:02;41.70;46.10
23591;DHT22;11973;52.098;7.582;2023-06-24T15:24:27;41.90;45.70
23591;DHT22;11973;52.098;7.582;2023-06-24T15:26:53;42.10;45.10
23591;DHT22;11973;52.098;7.582;2023-06-24T15:29:19;42.40;44.70
23591;DHT22;11973;52.098;7.582;2023-06-24T15:31:45;42.50;44.10
23591;DHT22;11973;52.098;7.582;2023-06-24T15:34:12;42.60;43.20
23591;DHT22;11973;52.098;7.582;2023-06-24T15:36:38;42.60;42.10
23591;DHT22;11973;52.098;7.582;2023-06-24T15:39:06;42.70;42.00
23591;DHT22;11973;52.098;7.582;2023-06-24T15:41:32;42.80;42.00
23591;DHT22;11973;52.098;7.582;2023-06-24T15:43:57;43.00;41.30
23591;DHT22;11973;52.098;7.582;2023-06-24T15:46:23;43.30;40.80
23591;DHT22;11973;52.098;7.582;2023-06-24T15:48:51;43.50;40.50
23591;DHT22;11973;52.098;7.582;2023-06-24T15:51:17;43.70;40.10
23591;DHT22;11973;52.098;7.582;2023-06-24T15:53:44;43.80;39.60
23591;DHT22;11973;52.098;7.582;2023-06-24T15:56:10;43.90;39.10
23591;DHT22;11973;52.098;7.582;2023-06-24T15:58:36;44.10;39.00
23591;DHT22;11973;52.098;7.582;2023-06-24T16:01:02;44.20;38.50
23591;DHT22;11973;52.098;7.582;2023-06-24T16:03:30;44.40;38.20
23591;DHT22;11973;52.098;7.582;2023-06-24T16:06:04;44.60;37.90
23591;DHT22;11973;52.098;7.582;2023-06-24T16:08:36;44.90;37.60
23591;DHT22;11973;52.098;7.582;2023-06-24T16:11:02;45.10;37.40
23591;DHT22;11973;52.098;7.582;2023-06-24T16:13:31;45.20;36.70
23591;DHT22;11973;52.098;7.582;2023-06-24T16:15:58;45.30;36.40
23591;DHT22;11973;52.098;7.582;2023-06-24T16:18:27;45.30;36.00
23591;DHT22;11973;52.098;7.582;2023-06-24T16:20:53;45.30;35.70
23591;DHT22;11973;52.098;7.582;2023-06-24T16:23:18;45.30;35.60
23591;DHT22;11973;52.098;7.582;2023-06-24T16:25:44;45.40;35.40
23591;DHT22;11973;52.098;7.582;2023-06-24T16:28:10;45.50;35.30
23591;DHT22;11973;52.098;7.582;2023-06-24T16:30:36;45.60;34.90
23591;DHT22;11973;52.098;7.582;2023-06-24T16:33:02;45.70;34.60
23591;DHT22;11973;52.098;7.582;2023-06-24T16:35:28;45.80;34.00
23591;DHT22;11973;52.098;7.582;2023-06-24T16:37:56;45.70;33.50
23591;DHT22;11973;52.098;7.582;2023-06-24T16:40:22;45.70;33.30
23591;DHT22;11973;52.098;7.582;2023-06-24T16:42:48;45.70;33.20
23591;DHT22;11973;52.098;7.582;2023-06-24T16:45:17;45.60;33.30
23591;DHT22;11973;52.098;7.582;2023-06-24T16:47:43;45.30;34.50
23591;DHT22;11973;52.098;7.582;2023-06-24T16:50:12;44.40;34.00
23591;DHT22;11973;52.098;7.582;2023-06-24T16:52:41;43.20;34.20
23591;DHT22;11973;52.098;7.582;2023-06-24T16:55:07;41.90;34.60
23591;DHT22;11973;52.098;7.582;2023-06-24T16:57:33;40.80;35.00
23591;DHT22;11973;52.098;7.582;2023-06-24T16:59:59;39.70;35.50
23591;DHT22;11973;52.098;7.582;2023-06-24T17:02:25;38.70;36.00
23591;DHT22;11973;52.098;7.582;2023-06-24T17:04:51;37.80;36.80
23591;DHT22;11973;52.098;7.582;2023-06-24T17:07:17;37.00;37.30
23591;DHT22;11973;52.098;7.582;2023-06-24T17:09:42;36.40;37.90
23591;DHT22;11973;52.098;7.582;2023-06-24T17:12:08;35.70;38.30
23591;DHT22;11973;52.098;7.582;2023-06-24T17:14:34;35.10;39.00
23591;DHT22;11973;52.098;7.582;2023-06-24T17:17:00;34.70;39.50
23591;DHT22;11973;52.098;7.582;2023-06-24T17:19:25;34.20;40.50
23591;DHT22;11973;52.098;7.582;2023-06-24T17:21:51;33.80;40.60
23591;DHT22;11973;52.098;7.582;2023-06-24T17:24:17;33.50;41.50
23591;DHT22;11973;52.098;7.582;2023-06-24T17:26:42;33.10;41.80
23591;DHT22;11973;52.098;7.582;2023-06-24T17:29:08;32.80;42.30
23591;DHT22;11973;52.098;7.582;2023-06-24T17:31:34;32.60;42.80
23591;DHT22;11973;52.098;7.582;2023-06-24T17:34:00;32.50;42.70
23591;DHT22;11973;52.098;7.582;2023-06-24T17:36:25;32.60;42.70
23591;DHT22;11973;52.098;7.582;2023-06-24T17:38:51;32.50;43.00
23591;DHT22;11973;52.098;7.582;2023-06-24T17:41:17;32.30;43.50
23591;DHT22;11973;52.098;7.582;2023-06-24T17:43:42;32.20;43.80
23591;DHT22;11973;52.098;7.582;2023-06-24T17:46:08;32.10;44.20
23591;DHT22;11973;52.098;7.582;2023-06-24T17:48:34;31.90;44.80
23591;DHT22;11973;52.098;7.582;2023-06-24T17:51:00;31.70;45.40
23591;DHT22;11973;52.098;7.582;2023-06-24T17:53:25;31.60;45.20
23591;DHT22;11973;52.098;7.582;2023-06-24T17:55:51;31.40;45.20
23591;DHT22;11973;52.098;7.582;2023-06-24T17:58:17;31.30;45.70
23591;DHT22;11973;52.098;7.582;2023-06-24T18:00:44;31.20;46.00
23591;DHT22;11973;52.098;7.582;2023-06-24T18:03:10;31.00;46.10
23591;DHT22;11973;52.098;7.582;2023-06-24T18:05:36;30.90;46.20
23591;DHT22;11973;52.098;7.582;2023-06-24T18:08:02;30.80;46.20
23591;DHT22;11973;52.098;7.582;2023-06-24T18:10:28;30.60;46.10
23591;DHT22;11973;52.098;7.582;2023-06-24T18:12:53;30.50;46.50
23591;DHT22;11973;52.098;7.582;2023-06-24T18:15:19;30.40;46.60
23591;DHT22;11973;52.098;7.582;2023-06-24T18:17:45;30.30;46.70
23591;DHT22;11973;52.098;7.582;2023-06-24T18:20:11;30.20;47.00
23591;DHT22;11973;52.098;7.582;2023-06-24T18:22:37;30.10;47.30
23591;DHT22;11973;52.098;7.582;2023-06-24T18:25:09;30.00;47.60
23591;DHT22;11973;52.098;7.582;2023-06-24T18:27:35;29.90;47.90
23591;DHT22;11973;52.098;7.582;2023-06-24T18:30:00;29.70;47.90
23591;DHT22;11973;52.098;7.582;2023-06-24T18:32:26;29.40;47.90
23591;DHT22;11973;52.098;7.582;2023-06-24T18:34:52;29.50;48.20
23591;DHT22;11973;52.098;7.582;2023-06-24T18:37:21;29.40;48.40
23591;DHT22;11973;52.098;7.582;2023-06-24T18:39:47;29.40;48.90
23591;DHT22;11973;52.098;7.582;2023-06-24T18:42:13;29.30;49.10
23591;DHT22;11973;52.098;7.582;2023-06-24T18:44:39;29.20;49.30
23591;DHT22;11973;52.098;7.582;2023-06-24T18:47:04;29.10;49.30
23591;DHT22;11973;52.098;7.582;2023-06-24T18:49:30;29.00;49.60
23591;DHT22;11973;52.098;7.582;2023-06-24T18:51:56;28.90;49.90
23591;DHT22;11973;52.098;7.582;2023-06-24T18:54:22;28.80;50.20
23591;DHT22;11973;52.098;7.582;2023-06-24T18:56:47;28.70;50.30
23591;DHT22;11973;52.098;7.582;2023-06-24T18:59:14;28.70;50.90
23591;DHT22;11973;52.098;7.582;2023-06-24T19:01:40;28.60;51.50
